sensor_id;sensor_type;location;lat;lon;timestamp;pressure;altitude;pressure_sealevel;temperature
14666;BMP280;7420;53.574;10.040;2022-08-03T00:01:33;101504.28;;;21.56
14666;BMP280;7420;53.574;10.040;2022-08-03T00:03:59;101500.47;;;21.52
14666;BMP280;7420;53.574;10.040;2022-08-03T00:06:24;101498.59;;;21.53
14666;BMP280;7420;53.574;10.040;2022-08-03T00:08:49;101503.09;;;21.42
14666;BMP280;7420;53.574;10.040;2022-08-03T00:11:15;101500.91;;;21.39
14666;BMP280;7420;53.574;10.040;2022-08-03T00:13:40;101504.16;;;21.41
14666;BMP280;7420;53.574;10.040;2022-08-03T00:16:06;101500.59;;;21.31
14666;BMP280;7420;53.574;10.040;2022-08-03T00:18:31;101502.50;;;21.30
14666;BMP280;7420;53.574;10.040;2022-08-03T00:20:56;101498.44;;;21.33
14666;BMP280;7420;53.574;10.040;2022-08-03T00:23:22;101499.25;;;21.28
14666;BMP280;7420;53.574;10.040;2022-08-03T00:25:47;101503.00;;;21.27
14666;BMP280;7420;53.574;10.040;2022-08-03T00:28:12;101501.66;;;21.30
14666;BMP280;7420;53.574;10.040;2022-08-03T00:30:38;101498.13;;;21.24
14666;BMP280;7420;53.574;10.040;2022-08-03T00:33:03;101491.09;;;21.23
14666;BMP280;7420;53.574;10.040;2022-08-03T00:35:29;101495.94;;;21.21
14666;BMP280;7420;53.574;10.040;2022-08-03T00:37:55;101494.03;;;21.17
14666;BMP280;7420;53.574;10.040;2022-08-03T00:40:22;101496.97;;;21.15
14666;BMP280;7420;53.574;10.040;2022-08-03T00:42:53;101497.75;;;21.11
14666;BMP280;7420;53.574;10.040;2022-08-03T00:45:21;101495.31;;;21.09
14666;BMP280;7420;53.574;10.040;2022-08-03T00:47:47;101492.03;;;21.07
14666;BMP280;7420;53.574;10.040;2022-08-03T00:50:12;101492.34;;;21.11
14666;BMP280;7420;53.574;10.040;2022-08-03T00:52:38;101488.03;;;21.10
14666;BMP280;7420;53.574;10.040;2022-08-03T00:55:04;101490.13;;;21.03
14666;BMP280;7420;53.574;10.040;2022-08-03T00:57:31;101494.69;;;21.02
14666;BMP280;7420;53.574;10.040;2022-08-03T00:59:56;101496.78;;;20.91
14666;BMP280;7420;53.574;10.040;2022-08-03T01:02:24;101502.94;;;20.86
14666;BMP280;7420;53.574;10.040;2022-08-03T01:04:50;101495.94;;;20.90
14666;BMP280;7420;53.574;10.040;2022-08-03T01:07:16;101490.81;;;20.89
14666;BMP280;7420;53.574;10.040;2022-08-03T01:09:54;101488.06;;;20.84
14666;BMP280;7420;53.574;10.040;2022-08-03T01:12:24;101497.47;;;20.81
14666;BMP280;7420;53.574;10.040;2022-08-03T01:15:03;101496.09;;;20.79
14666;BMP280;7420;53.574;10.040;2022-08-03T01:17:42;101493.34;;;20.74
14666;BMP280;7420;53.574;10.040;2022-08-03T01:20:12;101487.88;;;20.69
14666;BMP280;7420;53.574;10.040;2022-08-03T01:28:38;101492.09;;;20.55
14666;BMP280;7420;53.574;10.040;2022-08-03T01:31:10;101492.03;;;20.50
14666;BMP280;7420;53.574;10.040;2022-08-03T01:33:41;101483.38;;;20.48
14666;BMP280;7420;53.574;10.040;2022-08-03T01:36:13;101481.69;;;20.42
14666;BMP280;7420;53.574;10.040;2022-08-03T01:39:01;101484.91;;;20.39
14666;BMP280;7420;53.574;10.040;2022-08-03T01:41:35;101476.81;;;20.39
14666;BMP280;7420;53.574;10.040;2022-08-03T01:44:03;101479.44;;;20.34
14666;BMP280;7420;53.574;10.040;2022-08-03T01:46:31;101472.75;;;20.36
14666;BMP280;7420;53.574;10.040;2022-08-03T01:48:57;101483.22;;;20.33
14666;BMP280;7420;53.574;10.040;2022-08-03T01:51:24;101485.06;;;20.27
14666;BMP280;7420;53.574;10.040;2022-08-03T01:53:50;101484.22;;;20.27
14666;BMP280;7420;53.574;10.040;2022-08-03T01:56:19;101486.88;;;20.22
14666;BMP280;7420;53.574;10.040;2022-08-03T01:58:48;101475.06;;;20.28
14666;BMP280;7420;53.574;10.040;2022-08-03T02:01:15;101481.09;;;20.13
14666;BMP280;7420;53.574;10.040;2022-08-03T02:03:42;101477.09;;;20.16
14666;BMP280;7420;53.574;10.040;2022-08-03T02:06:11;101477.09;;;20.16
14666;BMP280;7420;53.574;10.040;2022-08-03T02:08:38;101464.84;;;20.08
14666;BMP280;7420;53.574;10.040;2022-08-03T02:11:05;101469.69;;;20.06
14666;BMP280;7420;53.574;10.040;2022-08-03T02:13:32;101475.91;;;20.07
14666;BMP280;7420;53.574;10.040;2022-08-03T02:15:58;101472.09;;;20.03
14666;BMP280;7420;53.574;10.040;2022-08-03T02:18:24;101473.16;;;20.02
14666;BMP280;7420;53.574;10.040;2022-08-03T02:20:51;101478.94;;;19.94
14666;BMP280;7420;53.574;10.040;2022-08-03T02:23:17;101470.94;;;19.99
14666;BMP280;7420;53.574;10.040;2022-08-03T02:25:56;101468.31;;;20.04
14666;BMP280;7420;53.574;10.040;2022-08-03T02:28:29;101471.13;;;19.92
14666;BMP280;7420;53.574;10.040;2022-08-03T02:30:55;101474.25;;;19.84
14666;BMP280;7420;53.574;10.040;2022-08-03T02:33:43;101473.44;;;19.84
14666;BMP280;7420;53.574;10.040;2022-08-03T02:36:10;101463.75;;;19.88
14666;BMP280;7420;53.574;10.040;2022-08-03T02:38:40;101464.59;;;19.88
14666;BMP280;7420;53.574;10.040;2022-08-03T02:41:17;101465.84;;;19.81
14666;BMP280;7420;53.574;10.040;2022-08-03T02:43:47;101463.03;;;19.71
14666;BMP280;7420;53.574;10.040;2022-08-03T02:46:17;101462.75;;;19.72
14666;BMP280;7420;53.574;10.040;2022-08-03T02:48:45;101454.69;;;19.72
14666;BMP280;7420;53.574;10.040;2022-08-03T02:51:12;101459.78;;;19.69
14666;BMP280;7420;53.574;10.040;2022-08-03T02:53:41;101463.53;;;19.68
14666;BMP280;7420;53.574;10.040;2022-08-03T02:56:08;101458.13;;;19.68
14666;BMP280;7420;53.574;10.040;2022-08-03T02:58:34;101457.00;;;19.64
14666;BMP280;7420;53.574;10.040;2022-08-03T03:01:00;101459.19;;;19.67
14666;BMP280;7420;53.574;10.040;2022-08-03T03:03:27;101467.97;;;19.58
14666;BMP280;7420;53.574;10.040;2022-08-03T03:05:53;101465.50;;;19.56
14666;BMP280;7420;53.574;10.040;2022-08-03T03:08:20;101465.03;;;19.59
14666;BMP280;7420;53.574;10.040;2022-08-03T03:10:46;101462.03;;;19.56
14666;BMP280;7420;53.574;10.040;2022-08-03T03:13:14;101457.34;;;19.51
14666;BMP280;7420;53.574;10.040;2022-08-03T03:15:40;101460.63;;;19.53
14666;BMP280;7420;53.574;10.040;2022-08-03T03:18:06;101455.72;;;19.50
14666;BMP280;7420;53.574;10.040;2022-08-03T03:20:35;101461.94;;;19.51
14666;BMP280;7420;53.574;10.040;2022-08-03T03:23:02;101457.13;;;19.53
14666;BMP280;7420;53.574;10.040;2022-08-03T03:25:30;101462.56;;;19.36
14666;BMP280;7420;53.574;10.040;2022-08-03T03:27:58;101461.53;;;19.42
14666;BMP280;7420;53.574;10.040;2022-08-03T03:30:25;101453.41;;;19.37
14666;BMP280;7420;53.574;10.040;2022-08-03T03:32:51;101465.25;;;19.36
14666;BMP280;7420;53.574;10.040;2022-08-03T03:35:17;101463.16;;;19.43
14666;BMP280;7420;53.574;10.040;2022-08-03T03:37:42;101460.47;;;19.43
14666;BMP280;7420;53.574;10.040;2022-08-03T03:40:08;101466.06;;;19.37
14666;BMP280;7420;53.574;10.040;2022-08-03T03:42:34;101466.06;;;19.37
14666;BMP280;7420;53.574;10.040;2022-08-03T03:45:03;101461.31;;;19.44
14666;BMP280;7420;53.574;10.040;2022-08-03T03:47:29;101458.78;;;19.37
14666;BMP280;7420;53.574;10.040;2022-08-03T03:49:56;101460.25;;;19.45
14666;BMP280;7420;53.574;10.040;2022-08-03T03:52:21;101463.16;;;19.43
14666;BMP280;7420;53.574;10.040;2022-08-03T03:54:47;101460.44;;;19.38
14666;BMP280;7420;53.574;10.040;2022-08-03T03:57:12;101464.59;;;19.29
14666;BMP280;7420;53.574;10.040;2022-08-03T03:59:43;101470.00;;;19.29
14666;BMP280;7420;53.574;10.040;2022-08-03T04:02:10;101467.88;;;19.31
14666;BMP280;7420;53.574;10.040;2022-08-03T04:04:38;101474.25;;;19.25
14666;BMP280;7420;53.574;10.040;2022-08-03T04:07:24;101461.06;;;19.29
14666;BMP280;7420;53.574;10.040;2022-08-03T04:10:36;101467.94;;;19.36
14666;BMP280;7420;53.574;10.040;2022-08-03T04:13:21;101464.13;;;19.32
14666;BMP280;7420;53.574;10.040;2022-08-03T04:15:47;101456.91;;;19.38
14666;BMP280;7420;53.574;10.040;2022-08-03T04:18:14;101470.94;;;19.40
14666;BMP280;7420;53.574;10.040;2022-08-03T04:20:44;101463.75;;;19.45
14666;BMP280;7420;53.574;10.040;2022-08-03T04:23:12;101468.03;;;19.41
14666;BMP280;7420;53.574;10.040;2022-08-03T04:25:39;101460.47;;;19.43
14666;BMP280;7420;53.574;10.040;2022-08-03T04:28:09;101468.63;;;19.48
14666;BMP280;7420;53.574;10.040;2022-08-03T04:30:36;101466.44;;;19.45
14666;BMP280;7420;53.574;10.040;2022-08-03T04:33:02;101464.94;;;19.54
14666;BMP280;7420;53.574;10.040;2022-08-03T04:35:32;101462.75;;;19.51
14666;BMP280;7420;53.574;10.040;2022-08-03T04:38:01;101471.41;;;19.53
14666;BMP280;7420;53.574;10.040;2022-08-03T04:40:32;101469.69;;;19.47
14666;BMP280;7420;53.574;10.040;2022-08-03T04:42:57;101466.50;;;19.50
14666;BMP280;7420;53.574;10.040;2022-08-03T04:45:24;101468.59;;;19.65
14666;BMP280;7420;53.574;10.040;2022-08-03T04:47:51;101471.34;;;19.69
14666;BMP280;7420;53.574;10.040;2022-08-03T04:50:17;101466.53;;;19.71
14666;BMP280;7420;53.574;10.040;2022-08-03T04:52:43;101473.06;;;19.75
14666;BMP280;7420;53.574;10.040;2022-08-03T04:55:08;101479.16;;;19.87
14666;BMP280;7420;53.574;10.040;2022-08-03T04:57:34;101476.91;;;20.22
14666;BMP280;7420;53.574;10.040;2022-08-03T04:59:59;101487.34;;;20.14
14666;BMP280;7420;53.574;10.040;2022-08-03T05:02:25;101477.66;;;19.96
14666;BMP280;7420;53.574;10.040;2022-08-03T05:04:51;101479.28;;;19.97
14666;BMP280;7420;53.574;10.040;2022-08-03T05:07:17;101484.78;;;19.86
14666;BMP280;7420;53.574;10.040;2022-08-03T05:09:43;101492.88;;;19.86
14666;BMP280;7420;53.574;10.040;2022-08-03T05:12:09;101486.41;;;19.87
14666;BMP280;7420;53.574;10.040;2022-08-03T05:14:35;101476.75;;;19.91
14666;BMP280;7420;53.574;10.040;2022-08-03T05:17:03;101480.59;;;19.95
14666;BMP280;7420;53.574;10.040;2022-08-03T05:19:28;101482.38;;;20.06
14666;BMP280;7420;53.574;10.040;2022-08-03T05:21:53;101485.44;;;20.14
14666;BMP280;7420;53.574;10.040;2022-08-03T05:24:19;101488.69;;;20.16
14666;BMP280;7420;53.574;10.040;2022-08-03T05:26:44;101482.03;;;20.24
14666;BMP280;7420;53.574;10.040;2022-08-03T05:29:09;101480.22;;;20.29
14666;BMP280;7420;53.574;10.040;2022-08-03T05:31:36;101479.78;;;20.37
14666;BMP280;7420;53.574;10.040;2022-08-03T05:34:01;101489.28;;;20.45
14666;BMP280;7420;53.574;10.040;2022-08-03T05:36:27;101488.44;;;20.39
14666;BMP280;7420;53.574;10.040;2022-08-03T05:38:52;101486.59;;;20.45
14666;BMP280;7420;53.574;10.040;2022-08-03T05:41:17;101488.31;;;20.56
14666;BMP280;7420;53.574;10.040;2022-08-03T05:43:43;101483.50;;;20.63
14666;BMP280;7420;53.574;10.040;2022-08-03T05:46:09;101485.13;;;20.64
14666;BMP280;7420;53.574;10.040;2022-08-03T05:48:34;101480.66;;;20.74
14666;BMP280;7420;53.574;10.040;2022-08-03T05:50:59;101483.75;;;20.83
14666;BMP280;7420;53.574;10.040;2022-08-03T05:53:25;101487.31;;;20.93
14666;BMP280;7420;53.574;10.040;2022-08-03T05:55:50;101477.97;;;21.05
14666;BMP280;7420;53.574;10.040;2022-08-03T05:58:16;101483.47;;;21.15
14666;BMP280;7420;53.574;10.040;2022-08-03T06:00:41;101477.53;;;21.18
14666;BMP280;7420;53.574;10.040;2022-08-03T06:03:07;101482.47;;;21.26
14666;BMP280;7420;53.574;10.040;2022-08-03T06:05:32;101477.66;;;21.38
14666;BMP280;7420;53.574;10.040;2022-08-03T06:08:01;101483.66;;;21.45
14666;BMP280;7420;53.574;10.040;2022-08-03T06:10:26;101485.28;;;21.46
14666;BMP280;7420;53.574;10.040;2022-08-03T06:12:51;101478.31;;;21.55
14666;BMP280;7420;53.574;10.040;2022-08-03T06:15:17;101479.66;;;21.58
14666;BMP280;7420;53.574;10.040;2022-08-03T06:17:49;101480.03;;;21.66
14666;BMP280;7420;53.574;10.040;2022-08-03T06:20:19;101480.59;;;21.73
14666;BMP280;7420;53.574;10.040;2022-08-03T06:22:45;101483.31;;;21.78
14666;BMP280;7420;53.574;10.040;2022-08-03T06:25:11;101472.00;;;21.86
14666;BMP280;7420;53.574;10.040;2022-08-03T06:27:37;101476.91;;;21.94
14666;BMP280;7420;53.574;10.040;2022-08-03T06:30:05;101476.41;;;22.02
14666;BMP280;7420;53.574;10.040;2022-08-03T06:32:31;101479.97;;;22.17
14666;BMP280;7420;53.574;10.040;2022-08-03T06:34:58;101475.66;;;22.26
14666;BMP280;7420;53.574;10.040;2022-08-03T06:37:23;101479.19;;;22.32
14666;BMP280;7420;53.574;10.040;2022-08-03T06:39:49;101478.16;;;22.43
14666;BMP280;7420;53.574;10.040;2022-08-03T06:42:14;101481.97;;;22.52
14666;BMP280;7420;53.574;10.040;2022-08-03T06:44:39;101478.19;;;22.53
14666;BMP280;7420;53.574;10.040;2022-08-03T06:47:05;101476.56;;;22.72
14666;BMP280;7420;53.574;10.040;2022-08-03T06:49:30;101469.00;;;22.79
14666;BMP280;7420;53.574;10.040;2022-08-03T06:51:55;101474.41;;;22.89
14666;BMP280;7420;53.574;10.040;2022-08-03T06:54:21;101482.25;;;22.90
14666;BMP280;7420;53.574;10.040;2022-08-03T06:56:48;101484.16;;;22.95
14666;BMP280;7420;53.574;10.040;2022-08-03T06:59:13;101478.72;;;23.05
14666;BMP280;7420;53.574;10.040;2022-08-03T07:01:39;101471.72;;;23.14
14666;BMP280;7420;53.574;10.040;2022-08-03T07:04:04;101478.22;;;23.28
14666;BMP280;7420;53.574;10.040;2022-08-03T07:06:30;101480.63;;;23.39
14666;BMP280;7420;53.574;10.040;2022-08-03T07:08:55;101491.72;;;23.42
14666;BMP280;7420;53.574;10.040;2022-08-03T07:11:21;101482.78;;;23.52
14666;BMP280;7420;53.574;10.040;2022-08-03T07:13:46;101487.34;;;23.61
14666;BMP280;7420;53.574;10.040;2022-08-03T07:16:11;101482.44;;;23.68
14666;BMP280;7420;53.574;10.040;2022-08-03T07:18:37;101486.50;;;23.81
14666;BMP280;7420;53.574;10.040;2022-08-03T07:21:03;101497.88;;;23.78
14666;BMP280;7420;53.574;10.040;2022-08-03T07:23:28;101488.38;;;23.90
14666;BMP280;7420;53.574;10.040;2022-08-03T07:25:54;101490.75;;;23.97
14666;BMP280;7420;53.574;10.040;2022-08-03T07:28:19;101494.72;;;24.19
14666;BMP280;7420;53.574;10.040;2022-08-03T07:30:45;101499.59;;;24.22
14666;BMP280;7420;53.574;10.040;2022-08-03T07:33:10;101492.56;;;24.16
14666;BMP280;7420;53.574;10.040;2022-08-03T07:35:36;101498.72;;;24.37
14666;BMP280;7420;53.574;10.040;2022-08-03T07:38:01;101496.75;;;24.52
14666;BMP280;7420;53.574;10.040;2022-08-03T07:40:27;101495.41;;;24.50
14666;BMP280;7420;53.574;10.040;2022-08-03T07:42:52;101494.44;;;24.74
14666;BMP280;7420;53.574;10.040;2022-08-03T07:45:17;101488.75;;;25.04
14666;BMP280;7420;53.574;10.040;2022-08-03T07:47:43;101489.22;;;25.11
14666;BMP280;7420;53.574;10.040;2022-08-03T07:50:08;101491.19;;;25.34
14666;BMP280;7420;53.574;10.040;2022-08-03T07:52:34;101488.56;;;25.29
14666;BMP280;7420;53.574;10.040;2022-08-03T07:55:17;101479.22;;;25.35
14666;BMP280;7420;53.574;10.040;2022-08-03T07:57:42;101477.53;;;25.39
14666;BMP280;7420;53.574;10.040;2022-08-03T08:00:18;101484.00;;;25.48
14666;BMP280;7420;53.574;10.040;2022-08-03T08:02:43;101481.09;;;25.63
14666;BMP280;7420;53.574;10.040;2022-08-03T08:05:09;101481.78;;;25.73
14666;BMP280;7420;53.574;10.040;2022-08-03T08:07:35;101478.72;;;25.79
14666;BMP280;7420;53.574;10.040;2022-08-03T08:10:04;101481.81;;;25.96
14666;BMP280;7420;53.574;10.040;2022-08-03T08:12:29;101477.03;;;26.07
14666;BMP280;7420;53.574;10.040;2022-08-03T08:14:55;101472.91;;;26.28
14666;BMP280;7420;53.574;10.040;2022-08-03T08:17:20;101472.50;;;26.39
14666;BMP280;7420;53.574;10.040;2022-08-03T08:19:45;101468.16;;;26.38
14666;BMP280;7420;53.574;10.040;2022-08-03T08:22:11;101474.19;;;26.35
14666;BMP280;7420;53.574;10.040;2022-08-03T08:24:36;101478.59;;;26.31
14666;BMP280;7420;53.574;10.040;2022-08-03T08:27:02;101475.97;;;26.45
14666;BMP280;7420;53.574;10.040;2022-08-03T08:29:27;101469.94;;;26.48
14666;BMP280;7420;53.574;10.040;2022-08-03T08:31:52;101465.00;;;26.50
14666;BMP280;7420;53.574;10.040;2022-08-03T08:34:18;101467.16;;;26.53
14666;BMP280;7420;53.574;10.040;2022-08-03T08:36:43;101458.50;;;26.64
14666;BMP280;7420;53.574;10.040;2022-08-03T08:39:08;101464.31;;;26.76
14666;BMP280;7420;53.574;10.040;2022-08-03T08:41:34;101465.34;;;26.80
14666;BMP280;7420;53.574;10.040;2022-08-03T08:44:00;101468.00;;;26.85
14666;BMP280;7420;53.574;10.040;2022-08-03T08:46:29;101461.72;;;26.85
14666;BMP280;7420;53.574;10.040;2022-08-03T08:48:56;101463.88;;;27.01
14666;BMP280;7420;53.574;10.040;2022-08-03T08:51:27;101469.34;;;27.01
14666;BMP280;7420;53.574;10.040;2022-08-03T08:53:55;101469.72;;;27.13
14666;BMP280;7420;53.574;10.040;2022-08-03T08:56:23;101465.97;;;27.09
14666;BMP280;7420;53.574;10.040;2022-08-03T08:58:56;101474.00;;;27.00
14666;BMP280;7420;53.574;10.040;2022-08-03T09:01:22;101472.81;;;26.88
14666;BMP280;7420;53.574;10.040;2022-08-03T09:03:47;101490.22;;;26.92
14666;BMP280;7420;53.574;10.040;2022-08-03T09:06:13;101476.84;;;26.77
14666;BMP280;7420;53.574;10.040;2022-08-03T09:08:39;101487.41;;;26.97
14666;BMP280;7420;53.574;10.040;2022-08-03T09:11:05;101498.41;;;26.92
14666;BMP280;7420;53.574;10.040;2022-08-03T09:13:32;101474.09;;;26.95
14666;BMP280;7420;53.574;10.040;2022-08-03T09:18:39;101473.44;;;26.85
14666;BMP280;7420;53.574;10.040;2022-08-03T09:21:20;101462.03;;;27.15
14666;BMP280;7420;53.574;10.040;2022-08-03T09:23:53;101471.22;;;27.05
14666;BMP280;7420;53.574;10.040;2022-08-03T09:26:27;101464.25;;;27.13
14666;BMP280;7420;53.574;10.040;2022-08-03T09:28:57;101473.16;;;27.18
14666;BMP280;7420;53.574;10.040;2022-08-03T09:31:43;101470.31;;;27.10
14666;BMP280;7420;53.574;10.040;2022-08-03T09:34:10;101476.50;;;27.29
14666;BMP280;7420;53.574;10.040;2022-08-03T09:39:04;101463.88;;;27.46
14666;BMP280;7420;53.574;10.040;2022-08-03T09:41:31;101455.31;;;27.66
14666;BMP280;7420;53.574;10.040;2022-08-03T09:43:56;101465.84;;;27.73
14666;BMP280;7420;53.574;10.040;2022-08-03T09:46:22;101471.19;;;27.51
14666;BMP280;7420;53.574;10.040;2022-08-03T09:48:47;101472.00;;;27.65
14666;BMP280;7420;53.574;10.040;2022-08-03T09:51:13;101472.72;;;27.70
14666;BMP280;7420;53.574;10.040;2022-08-03T09:53:45;101463.09;;;27.59
14666;BMP280;7420;53.574;10.040;2022-08-03T09:56:10;101454.03;;;27.77
14666;BMP280;7420;53.574;10.040;2022-08-03T09:58:44;101452.78;;;27.70
14666;BMP280;7420;53.574;10.040;2022-08-03T10:01:11;101464.81;;;27.69
14666;BMP280;7420;53.574;10.040;2022-08-03T10:03:38;101470.00;;;27.84
14666;BMP280;7420;53.574;10.040;2022-08-03T10:06:18;101444.22;;;27.76
14666;BMP280;7420;53.574;10.040;2022-08-03T10:08:44;101448.91;;;28.11
14666;BMP280;7420;53.574;10.040;2022-08-03T10:11:09;101460.63;;;28.12
14666;BMP280;7420;53.574;10.040;2022-08-03T10:13:35;101454.63;;;27.88
14666;BMP280;7420;53.574;10.040;2022-08-03T10:16:02;101458.63;;;28.17
14666;BMP280;7420;53.574;10.040;2022-08-03T10:18:29;101448.41;;;28.44
14666;BMP280;7420;53.574;10.040;2022-08-03T10:20:58;101453.75;;;28.27
14666;BMP280;7420;53.574;10.040;2022-08-03T10:23:27;101431.78;;;28.54
14666;BMP280;7420;53.574;10.040;2022-08-03T10:25:57;101446.34;;;28.63
14666;BMP280;7420;53.574;10.040;2022-08-03T10:28:27;101443.94;;;28.26
14666;BMP280;7420;53.574;10.040;2022-08-03T10:30:57;101451.03;;;28.14
14666;BMP280;7420;53.574;10.040;2022-08-03T10:33:27;101463.72;;;27.97
14666;BMP280;7420;53.574;10.040;2022-08-03T10:35:56;101441.22;;;28.13
14666;BMP280;7420;53.574;10.040;2022-08-03T10:38:29;101436.47;;;28.05
14666;BMP280;7420;53.574;10.040;2022-08-03T10:40:57;101440.28;;;28.31
14666;BMP280;7420;53.574;10.040;2022-08-03T10:43:29;101435.63;;;28.31
14666;BMP280;7420;53.574;10.040;2022-08-03T10:45:58;101457.41;;;28.10
14666;BMP280;7420;53.574;10.040;2022-08-03T10:48:25;101443.22;;;28.34
14666;BMP280;7420;53.574;10.040;2022-08-03T10:50:51;101432.66;;;28.41
14666;BMP280;7420;53.574;10.040;2022-08-03T10:53:33;101434.41;;;28.59
14666;BMP280;7420;53.574;10.040;2022-08-03T10:55:58;101425.44;;;28.45
14666;BMP280;7420;53.574;10.040;2022-08-03T11:01:12;101429.66;;;28.51
14666;BMP280;7420;53.574;10.040;2022-08-03T11:06:24;101426.44;;;28.49
14666;BMP280;7420;53.574;10.040;2022-08-03T11:11:34;101425.81;;;28.74
14666;BMP280;7420;53.574;10.040;2022-08-03T11:16:34;101426.22;;;28.11
14666;BMP280;7420;53.574;10.040;2022-08-03T11:19:06;101423.16;;;28.25
14666;BMP280;7420;53.574;10.040;2022-08-03T11:45:31;101426.69;;;29.05
14666;BMP280;7420;53.574;10.040;2022-08-03T11:47:59;101426.91;;;29.17
14666;BMP280;7420;53.574;10.040;2022-08-03T11:50:35;101414.63;;;28.84
14666;BMP280;7420;53.574;10.040;2022-08-03T11:53:01;101413.53;;;29.46
14666;BMP280;7420;53.574;10.040;2022-08-03T11:55:29;101409.53;;;29.52
14666;BMP280;7420;53.574;10.040;2022-08-03T11:57:57;101419.88;;;29.72
14666;BMP280;7420;53.574;10.040;2022-08-03T12:00:30;101422.88;;;29.23
14666;BMP280;7420;53.574;10.040;2022-08-03T12:03:05;101420.75;;;29.42
14666;BMP280;7420;53.574;10.040;2022-08-03T12:05:48;101421.63;;;29.68
14666;BMP280;7420;53.574;10.040;2022-08-03T12:10:54;101425.06;;;29.82
14666;BMP280;7420;53.574;10.040;2022-08-03T12:13:21;101409.91;;;29.76
14666;BMP280;7420;53.574;10.040;2022-08-03T12:15:57;101406.94;;;29.47
14666;BMP280;7420;53.574;10.040;2022-08-03T12:18:23;101403.50;;;29.89
14666;BMP280;7420;53.574;10.040;2022-08-03T12:20:50;101401.94;;;30.22
14666;BMP280;7420;53.574;10.040;2022-08-03T12:23:17;101396.78;;;30.54
14666;BMP280;7420;53.574;10.040;2022-08-03T12:25:43;101391.56;;;30.78
14666;BMP280;7420;53.574;10.040;2022-08-03T12:28:20;101403.47;;;30.90
14666;BMP280;7420;53.574;10.040;2022-08-03T12:30:50;101404.84;;;30.34
14666;BMP280;7420;53.574;10.040;2022-08-03T12:33:26;101394.50;;;30.22
14666;BMP280;7420;53.574;10.040;2022-08-03T12:36:03;101400.78;;;30.65
14666;BMP280;7420;53.574;10.040;2022-08-03T12:38:35;101399.50;;;31.25
14666;BMP280;7420;53.574;10.040;2022-08-03T12:41:03;101385.78;;;31.25
14666;BMP280;7420;53.574;10.040;2022-08-03T12:43:29;101390.41;;;30.96
14666;BMP280;7420;53.574;10.040;2022-08-03T12:46:12;101389.56;;;31.12
14666;BMP280;7420;53.574;10.040;2022-08-03T12:51:29;101385.94;;;31.20
14666;BMP280;7420;53.574;10.040;2022-08-03T12:53:57;101385.34;;;31.81
14666;BMP280;7420;53.574;10.040;2022-08-03T12:56:23;101389.66;;;31.24
14666;BMP280;7420;53.574;10.040;2022-08-03T12:58:49;101400.81;;;31.19
14666;BMP280;7420;53.574;10.040;2022-08-03T13:01:16;101391.78;;;31.85
14666;BMP280;7420;53.574;10.040;2022-08-03T13:03:43;101394.50;;;32.14
14666;BMP280;7420;53.574;10.040;2022-08-03T13:06:16;101392.06;;;32.33
14666;BMP280;7420;53.574;10.040;2022-08-03T13:08:42;101395.06;;;31.99
14666;BMP280;7420;53.574;10.040;2022-08-03T13:11:22;101381.75;;;31.52
14666;BMP280;7420;53.574;10.040;2022-08-03T13:13:49;101389.78;;;31.65
14666;BMP280;7420;53.574;10.040;2022-08-03T13:16:14;101391.53;;;32.19
14666;BMP280;7420;53.574;10.040;2022-08-03T13:18:39;101390.94;;;32.34
14666;BMP280;7420;53.574;10.040;2022-08-03T13:21:05;101388.81;;;32.51
14666;BMP280;7420;53.574;10.040;2022-08-03T13:23:30;101390.06;;;32.21
14666;BMP280;7420;53.574;10.040;2022-08-03T13:25:56;101383.94;;;32.36
14666;BMP280;7420;53.574;10.040;2022-08-03T13:28:21;101372.19;;;32.80
14666;BMP280;7420;53.574;10.040;2022-08-03T13:30:46;101370.88;;;33.34
14666;BMP280;7420;53.574;10.040;2022-08-03T13:33:12;101371.94;;;33.41
14666;BMP280;7420;53.574;10.040;2022-08-03T13:35:39;101375.00;;;33.76
14666;BMP280;7420;53.574;10.040;2022-08-03T13:38:05;101383.09;;;33.33
14666;BMP280;7420;53.574;10.040;2022-08-03T13:40:31;101386.13;;;33.55
14666;BMP280;7420;53.574;10.040;2022-08-03T13:42:57;101383.63;;;33.14
14666;BMP280;7420;53.574;10.040;2022-08-03T13:45:23;101381.91;;;33.34
14666;BMP280;7420;53.574;10.040;2022-08-03T13:47:49;101388.91;;;32.75
14666;BMP280;7420;53.574;10.040;2022-08-03T13:50:14;101376.50;;;33.25
14666;BMP280;7420;53.574;10.040;2022-08-03T13:52:40;101371.31;;;33.96
14666;BMP280;7420;53.574;10.040;2022-08-03T13:55:06;101361.28;;;34.42
14666;BMP280;7420;53.574;10.040;2022-08-03T13:57:32;101368.94;;;34.22
14666;BMP280;7420;53.574;10.040;2022-08-03T13:59:58;101355.63;;;34.39
14666;BMP280;7420;53.574;10.040;2022-08-03T14:02:23;101349.53;;;35.04
14666;BMP280;7420;53.574;10.040;2022-08-03T14:04:49;101356.66;;;34.89
14666;BMP280;7420;53.574;10.040;2022-08-03T14:07:14;101361.38;;;34.19
14666;BMP280;7420;53.574;10.040;2022-08-03T14:09:40;101354.81;;;34.11
14666;BMP280;7420;53.574;10.040;2022-08-03T14:12:05;101354.94;;;34.15
14666;BMP280;7420;53.574;10.040;2022-08-03T14:14:31;101347.13;;;33.65
14666;BMP280;7420;53.574;10.040;2022-08-03T14:16:56;101347.28;;;34.63
14666;BMP280;7420;53.574;10.040;2022-08-03T14:19:21;101351.81;;;34.28
14666;BMP280;7420;53.574;10.040;2022-08-03T14:21:47;101345.44;;;34.55
14666;BMP280;7420;53.574;10.040;2022-08-03T14:24:12;101346.41;;;35.21
14666;BMP280;7420;53.574;10.040;2022-08-03T14:26:37;101337.94;;;35.45
14666;BMP280;7420;53.574;10.040;2022-08-03T14:29:02;101347.81;;;36.14
14666;BMP280;7420;53.574;10.040;2022-08-03T14:31:29;101345.44;;;35.97
14666;BMP280;7420;53.574;10.040;2022-08-03T14:33:55;101337.53;;;36.34
14666;BMP280;7420;53.574;10.040;2022-08-03T14:36:20;101346.31;;;35.33
14666;BMP280;7420;53.574;10.040;2022-08-03T14:38:45;101337.75;;;36.06
14666;BMP280;7420;53.574;10.040;2022-08-03T14:41:11;101341.50;;;35.98
14666;BMP280;7420;53.574;10.040;2022-08-03T14:43:36;101340.94;;;36.46
14666;BMP280;7420;53.574;10.040;2022-08-03T14:46:01;101339.69;;;34.60
14666;BMP280;7420;53.574;10.040;2022-08-03T14:48:27;101336.34;;;35.13
14666;BMP280;7420;53.574;10.040;2022-08-03T14:50:52;101339.56;;;35.15